Time;durP1;ratioP1;P1;durP2;ratioP2;P2;SDS_P1;SDS_P2;PMS_P1;PMS_P2;Temp;Humidity;BMP_temperature;BMP_pressure;BME280_temperature;BME280_humidity;BME280_pressure;Samples;Min_cycle;Max_cycle;Signal;HPM_P1;HPM_P2
2021/01/27 00:00:31;;;;;;;7.53;5.57;;;1.80;85.10;;;;;;5006672;28;20206;-86
2021/01/27 00:03:01;;;;;;;6.23;5.00;;;1.80;85.20;;;;;;4991367;28;20210;-86
2021/01/27 00:05:33;;;;;;;6.07;5.47;;;1.70;85.90;;;;;;5003861;28;20209;-86
2021/01/27 00:07:59;;;;;;;7.33;5.43;;;1.60;86.50;;;;;;4994616;28;20195;-86
2021/01/27 00:10:25;;;;;;;5.77;5.13;;;1.70;85.80;;;;;;4988360;28;20206;-86
2021/01/27 00:12:51;;;;;;;8.70;5.70;;;1.70;86.00;;;;;;5006370;28;20641;-86
2021/01/27 00:15:31;;;;;;;6.67;6.07;;;1.70;86.30;;;;;;5001931;28;20269;-87
2021/01/27 00:17:57;;;;;;;6.57;5.87;;;1.80;85.60;;;;;;4978299;28;20213;-87
2021/01/27 00:20:25;;;;;;;6.87;5.60;;;1.90;85.50;;;;;;4973350;28;20254;-86
2021/01/27 00:22:51;;;;;;;5.83;5.20;;;1.90;85.60;;;;;;4969620;28;20678;-86
2021/01/27 00:25:20;;;;;;;6.37;5.30;;;1.90;86.10;;;;;;4987509;28;20202;-87
2021/01/27 00:27:45;;;;;;;6.13;5.43;;;1.90;86.80;;;;;;4990724;28;20190;-87
2021/01/27 00:30:18;;;;;;;6.67;5.03;;;1.90;85.60;;;;;;5004084;28;20225;-88
2021/01/27 00:32:43;;;;;;;5.70;5.10;;;2.00;85.70;;;;;;4998380;28;20244;-87
2021/01/27 00:35:10;;;;;;;7.57;5.80;;;1.90;86.50;;;;;;4979928;28;20214;-86
2021/01/27 00:37:35;;;;;;;7.23;5.37;;;1.80;86.00;;;;;;4991931;28;20238;-87
2021/01/27 00:40:01;;;;;;;6.43;5.83;;;1.60;87.10;;;;;;4985455;28;20584;-87
2021/01/27 00:42:27;;;;;;;12.37;5.87;;;1.70;87.50;;;;;;5005550;28;20204;-86
2021/01/27 00:44:52;;;;;;;6.33;5.73;;;1.70;86.70;;;;;;4987256;28;20217;-87
2021/01/27 00:47:18;;;;;;;7.37;5.43;;;1.80;86.00;;;;;;4974148;28;20320;-87
2021/01/27 00:49:44;;;;;;;8.57;6.17;;;1.60;86.90;;;;;;4995114;28;20215;-88
2021/01/27 00:52:09;;;;;;;7.83;5.83;;;1.50;87.40;;;;;;4992983;28;20195;-88
2021/01/27 00:54:35;;;;;;;6.27;5.63;;;1.50;87.60;;;;;;4964614;28;20211;-88
2021/01/27 00:57:01;;;;;;;7.67;5.70;;;1.60;87.70;;;;;;4984010;28;20199;-87
2021/01/27 00:59:26;;;;;;;5.80;5.20;;;1.50;87.80;;;;;;4996494;28;20195;-87
2021/01/27 01:01:52;;;;;;;6.93;5.77;;;1.60;87.10;;;;;;4982442;28;20191;-87
2021/01/27 01:04:18;;;;;;;8.00;5.77;;;1.70;86.60;;;;;;4995050;28;20226;-86
2021/01/27 01:06:43;;;;;;;5.73;5.13;;;1.60;86.70;;;;;;4963170;28;20187;-87
2021/01/27 01:09:09;;;;;;;6.87;5.30;;;1.60;86.70;;;;;;5000673;28;20189;-88
2021/01/27 01:11:34;;;;;;;6.53;5.80;;;1.50;87.40;;;;;;5001618;28;20561;-88
2021/01/27 01:14:00;;;;;;;7.43;5.77;;;1.30;88.50;;;;;;4987710;28;20218;-88
2021/01/27 01:16:26;;;;;;;6.10;5.50;;;1.30;88.60;;;;;;4993947;28;20193;-87
2021/01/27 01:18:52;;;;;;;6.50;5.17;;;1.30;88.00;;;;;;4977664;28;20244;-87
2021/01/27 01:21:18;;;;;;;8.17;6.33;;;1.30;88.90;;;;;;4984718;28;20190;-87
2021/01/27 01:23:44;;;;;;;5.80;5.20;;;1.30;88.70;;;;;;4988167;28;20253;-88
2021/01/27 01:26:10;;;;;;;8.07;5.40;;;1.30;88.50;;;;;;4964547;28;20195;-88
2021/01/27 01:28:35;;;;;;;7.83;5.90;;;1.40;87.80;;;;;;4982218;28;20525;-88
2021/01/27 01:31:01;;;;;;;6.77;5.73;;;1.50;87.50;;;;;;4983033;28;20217;-88
2021/01/27 01:33:29;;;;;;;7.23;5.00;;;1.40;87.00;;;;;;5002266;28;20201;-87
2021/01/27 01:35:56;;;;;;;8.47;5.90;;;1.30;87.90;;;;;;5003025;28;20183;-87
2021/01/27 01:38:23;;;;;;;6.30;5.57;;;1.50;87.10;;;;;;4999077;28;20334;-86
2021/01/27 01:40:55;;;;;;;6.50;5.80;;;1.40;86.70;;;;;;4984188;28;20190;-87
2021/01/27 01:43:27;;;;;;;8.20;6.07;;;1.30;87.50;;;;;;4991626;28;20242;-87
2021/01/27 01:46:09;;;;;;;6.87;4.70;;;1.30;88.30;;;;;;4990020;28;20245;-86
2021/01/27 01:49:16;;;;;;;5.70;5.10;;;1.20;88.20;;;;;;4984945;28;20171;-86
2021/01/27 01:51:58;;;;;;;7.67;5.90;;;1.20;88.90;;;;;;4925574;29;20244;-87
2021/01/27 01:54:46;;;;;;;6.13;5.30;;;1.20;88.20;;;;;;4923541;29;20296;-87
2021/01/27 01:57:17;;;;;;;6.70;5.73;;;1.20;89.20;;;;;;4967347;28;20648;-87
2021/01/27 01:59:58;;;;;;;10.33;6.20;;;1.10;89.10;;;;;;4993983;28;20183;-87
2021/01/27 02:02:24;;;;;;;6.37;5.20;;;1.10;89.80;;;;;;4983306;28;20229;-87
2021/01/27 02:05:06;;;;;;;6.73;5.50;;;1.20;89.20;;;;;;4965228;28;20305;-87
2021/01/27 02:07:32;;;;;;;5.33;4.80;;;1.40;89.00;;;;;;4984353;28;20167;-87
2021/01/27 02:09:57;;;;;;;5.47;4.90;;;1.50;88.00;;;;;;5002589;28;20216;-87
2021/01/27 02:12:26;;;;;;;5.67;4.83;;;1.70;86.70;;;;;;4983458;28;20214;-87
2021/01/27 02:15:24;;;;;;;7.30;5.00;;;1.80;86.40;;;;;;4986020;28;20233;-88
2021/01/27 02:18:08;;;;;;;5.67;5.03;;;1.80;86.10;;;;;;4996583;28;20205;-87
2021/01/27 02:20:52;;;;;;;5.80;5.20;;;1.80;85.40;;;;;;4984876;28;20190;-87
2021/01/27 02:23:42;;;;;;;6.30;5.30;;;1.70;86.60;;;;;;5001615;28;20194;-88
2021/01/27 02:26:17;;;;;;;6.20;5.20;;;1.70;86.50;;;;;;5001777;28;20177;-88
2021/01/27 02:29:08;;;;;;;7.90;5.17;;;1.80;86.40;;;;;;4985003;28;20181;-87
2021/01/27 02:32:00;;;;;;;9.60;6.30;;;1.80;86.40;;;;;;4991631;28;20168;-87
2021/01/27 02:35:00;;;;;;;7.37;5.57;;;1.70;86.20;;;;;;4998048;28;20241;-87
2021/01/27 02:37:49;;;;;;;6.30;5.70;;;1.70;87.00;;;;;;5002468;28;20182;-87
2021/01/27 02:40:22;;;;;;;7.00;5.70;;;1.70;87.70;;;;;;5001343;28;20182;-87
2021/01/27 02:43:14;;;;;;;6.63;5.47;;;1.60;87.40;;;;;;4998791;28;20225;-86
2021/01/27 02:45:49;;;;;;;5.93;5.23;;;1.60;88.00;;;;;;4968051;28;20194;-86
2021/01/27 02:48:41;;;;;;;8.40;6.40;;;1.50;87.80;;;;;;4987402;28;20539;-87
2021/01/27 02:51:22;;;;;;;8.03;5.63;;;1.50;88.60;;;;;;4982362;28;20159;-87
2021/01/27 02:53:57;;;;;;;7.90;6.43;;;1.50;89.40;;;;;;4991760;28;20209;-87
2021/01/27 02:56:32;;;;;;;9.63;6.37;;;1.60;88.50;;;;;;4997598;28;20175;-87
2021/01/27 02:59:06;;;;;;;8.93;6.57;;;1.50;88.60;;;;;;4991724;28;20180;-87
2021/01/27 03:01:41;;;;;;;8.20;6.47;;;1.40;89.00;;;;;;5001991;28;20254;-87
2021/01/27 03:04:15;;;;;;;6.57;5.27;;;1.40;88.70;;;;;;5001936;28;20218;-87
2021/01/27 03:06:42;;;;;;;6.93;6.10;;;1.40;89.30;;;;;;5014047;28;20173;-87
2021/01/27 03:09:17;;;;;;;7.77;5.93;;;1.50;88.80;;;;;;5001385;28;20186;-87
2021/01/27 03:11:44;;;;;;;7.97;6.10;;;1.60;88.00;;;;;;5002057;28;20178;-87
2021/01/27 03:14:10;;;;;;;8.93;6.63;;;1.50;87.30;;;;;;5001301;28;20293;-87
2021/01/27 03:16:47;;;;;;;7.33;6.23;;;1.40;87.90;;;;;;4972198;28;20190;-86
2021/01/27 03:19:37;;;;;;;8.20;6.40;;;1.40;89.00;;;;;;5001924;28;20515;-86
2021/01/27 03:22:10;;;;;;;11.33;7.20;;;1.20;89.80;;;;;;5005262;28;20249;-87
2021/01/27 03:24:45;;;;;;;8.07;6.80;;;1.10;90.30;;;;;;5004018;28;20253;-88
2021/01/27 03:27:21;;;;;;;9.30;6.80;;;1.00;91.20;;;;;;5004700;28;20185;-88
2021/01/27 03:29:53;;;;;;;7.63;6.90;;;0.90;92.90;;;;;;5005079;28;20169;-87
2021/01/27 03:32:24;;;;;;;7.43;6.53;;;0.90;92.40;;;;;;5004616;28;20198;-87
2021/01/27 03:34:57;;;;;;;8.63;6.43;;;0.90;92.30;;;;;;4987583;28;20203;-87
2021/01/27 03:37:38;;;;;;;6.57;5.87;;;0.90;91.70;;;;;;4985616;28;20167;-87
2021/01/27 03:40:09;;;;;;;9.97;6.03;;;1.10;90.90;;;;;;4999591;28;20182;-86
2021/01/27 03:42:50;;;;;;;6.87;5.77;;;1.10;90.70;;;;;;4987642;28;20175;-87
2021/01/27 03:45:19;;;;;;;6.03;5.43;;;1.40;90.70;;;;;;4983560;28;20222;-87
2021/01/27 03:48:09;;;;;;;5.60;4.73;;;1.60;89.90;;;;;;5004889;28;20317;-87
2021/01/27 03:50:38;;;;;;;6.20;5.30;;;1.80;88.30;;;;;;5004560;28;20159;-87
2021/01/27 03:53:14;;;;;;;6.20;5.50;;;1.90;87.40;;;;;;5001420;28;20673;-87
2021/01/27 03:55:50;;;;;;;7.33;5.80;;;2.00;86.60;;;;;;5001476;28;20206;-87
2021/01/27 03:58:41;;;;;;;6.37;5.77;;;2.10;86.40;;;;;;5004566;28;20162;-87
2021/01/27 04:01:10;;;;;;;6.70;5.27;;;2.00;86.80;;;;;;5004475;28;20169;-87
2021/01/27 04:03:36;;;;;;;6.00;5.40;;;2.10;87.10;;;;;;5004165;28;20218;-87
2021/01/27 04:06:04;;;;;;;5.87;4.83;;;2.10;86.90;;;;;;5003652;28;20245;-87
2021/01/27 04:08:29;;;;;;;5.90;5.23;;;2.30;86.40;;;;;;4987405;28;20596;-87
2021/01/27 04:10:55;;;;;;;5.57;4.93;;;2.30;86.30;;;;;;4999823;28;20277;-87
2021/01/27 04:13:21;;;;;;;7.13;5.57;;;2.30;85.40;;;;;;4986412;28;20213;-87
2021/01/27 04:15:47;;;;;;;7.50;5.37;;;2.30;85.70;;;;;;4981589;28;20198;-87
2021/01/27 04:18:13;;;;;;;6.30;5.40;;;2.30;85.40;;;;;;4967725;28;20186;-88
2021/01/27 04:20:39;;;;;;;7.00;5.37;;;2.20;85.10;;;;;;4984805;28;20207;-87
2021/01/27 04:23:05;;;;;;;6.73;5.70;;;2.20;84.40;;;;;;4988450;28;20213;-87
2021/01/27 04:25:31;;;;;;;6.47;5.37;;;2.10;84.50;;;;;;4994186;28;20207;-87
2021/01/27 04:27:56;;;;;;;5.83;5.23;;;1.90;84.70;;;;;;4989037;28;20191;-87
2021/01/27 04:30:26;;;;;;;7.43;5.00;;;1.80;86.10;;;;;;4999083;28;20185;-87
2021/01/27 04:32:52;;;;;;;5.33;4.80;;;1.80;85.60;;;;;;4986343;28;20214;-87
2021/01/27 04:35:19;;;;;;;5.90;5.30;;;1.70;85.80;;;;;;4997688;28;20217;-87
2021/01/27 04:37:45;;;;;;;5.63;5.03;;;1.80;86.10;;;;;;5002306;28;20186;-86
2021/01/27 04:40:16;;;;;;;5.60;4.93;;;1.80;85.50;;;;;;4996698;28;20696;-87
2021/01/27 04:42:42;;;;;;;6.40;5.40;;;1.60;85.30;;;;;;4985613;28;20217;-87
2021/01/27 04:45:08;;;;;;;7.90;5.37;;;1.50;86.30;;;;;;4993518;28;20207;-87
2021/01/27 04:47:56;;;;;;;9.47;6.13;;;1.30;87.30;;;;;;4995055;28;20253;-87
2021/01/27 04:50:31;;;;;;;8.57;6.00;;;1.00;89.20;;;;;;4984312;28;20191;-86
2021/01/27 04:53:08;;;;;;;8.93;6.30;;;1.00;89.70;;;;;;5000806;28;20174;-87
2021/01/27 04:55:59;;;;;;;7.57;6.03;;;1.00;89.20;;;;;;4968730;28;20225;-87
2021/01/27 04:58:30;;;;;;;5.70;5.07;;;1.10;89.50;;;;;;5004720;28;20182;-87
2021/01/27 05:01:02;;;;;;;5.80;4.90;;;1.20;89.10;;;;;;5004670;28;20237;-87
2021/01/27 05:03:49;;;;;;;10.43;5.87;;;1.30;89.40;;;;;;5004518;28;20226;-87
2021/01/27 05:06:24;;;;;;;7.27;5.80;;;1.50;87.10;;;;;;4985167;28;20179;-87
2021/01/27 05:09:02;;;;;;;5.77;5.17;;;1.60;86.90;;;;;;4975315;28;20558;-88
2021/01/27 05:11:29;;;;;;;7.07;4.90;;;1.50;88.10;;;;;;5004114;28;20154;-87
2021/01/27 05:13:59;;;;;;;8.37;5.03;;;1.70;87.20;;;;;;5003766;28;20213;-85
2021/01/27 05:16:27;;;;;;;5.70;4.33;;;1.70;87.00;;;;;;4976549;28;20202;-87
2021/01/27 05:18:57;;;;;;;7.10;5.40;;;1.80;87.40;;;;;;4986170;28;20194;-87
2021/01/27 05:21:32;;;;;;;6.13;4.97;;;1.90;86.90;;;;;;5004320;28;20186;-86
2021/01/27 05:23:59;;;;;;;5.30;4.47;;;1.80;87.20;;;;;;4996512;28;20206;-86
2021/01/27 05:26:52;;;;;;;6.43;5.83;;;1.90;87.80;;;;;;4984825;28;20266;-85
2021/01/27 05:29:25;;;;;;;6.13;4.93;;;1.90;86.50;;;;;;4998429;28;20233;-85
2021/01/27 05:32:02;;;;;;;7.30;5.77;;;2.00;86.40;;;;;;4986674;28;20519;-86
2021/01/27 05:34:37;;;;;;;6.67;5.93;;;1.90;86.10;;;;;;5004278;28;20412;-86
2021/01/27 05:37:06;;;;;;;6.53;5.60;;;2.00;86.70;;;;;;4984776;28;20209;-85
2021/01/27 05:39:33;;;;;;;6.77;5.50;;;2.00;85.70;;;;;;4993268;28;20653;-85
2021/01/27 05:42:27;;;;;;;7.13;5.93;;;2.00;85.90;;;;;;5003545;28;20244;-86
2021/01/27 05:44:56;;;;;;;6.37;5.73;;;1.90;86.60;;;;;;4985160;28;20195;-86
2021/01/27 05:47:35;;;;;;;6.63;5.47;;;1.90;86.50;;;;;;4966722;28;20186;-86
2021/01/27 05:50:21;;;;;;;6.90;5.37;;;1.90;86.80;;;;;;4984562;28;20183;-85
2021/01/27 05:52:47;;;;;;;7.60;5.83;;;2.00;86.10;;;;;;4972941;28;20186;-86
2021/01/27 05:55:13;;;;;;;7.13;5.53;;;2.10;85.90;;;;;;4990962;28;20203;-87
2021/01/27 05:57:40;;;;;;;6.80;5.30;;;2.00;86.00;;;;;;5062748;22;20284;-84
2021/01/27 06:00:25;;;;;;;7.33;5.30;;;2.10;86.00;;;;;;5042504;28;20188;-85
2021/01/27 06:02:52;;;;;;;7.53;5.43;;;2.00;85.60;;;;;;5033373;28;20722;-84
2021/01/27 06:05:37;;;;;;;7.10;5.83;;;1.90;86.00;;;;;;5023028;28;20580;-85
2021/01/27 06:08:15;;;;;;;7.77;5.90;;;1.80;85.60;;;;;;5024879;28;20212;-86
2021/01/27 06:10:42;;;;;;;7.40;5.90;;;1.80;86.30;;;;;;5024593;28;20172;-86
2021/01/27 06:13:31;;;;;;;11.17;7.40;;;1.60;87.60;;;;;;5024039;28;20612;-84
2021/01/27 06:15:58;;;;;;;21.67;19.60;;;1.80;86.80;;;;;;5020745;28;20204;-86
2021/01/27 06:18:32;;;;;;;9.83;6.93;;;1.90;86.60;;;;;;5043723;28;20184;-86
2021/01/27 06:21:52;;;;;;;9.67;6.80;;;1.80;86.40;;;;;;5044031;28;20180;-85
2021/01/27 06:24:30;;;;;;;9.57;6.90;;;1.80;87.30;;;;;;5043803;28;20231;-86
2021/01/27 06:27:04;;;;;;;8.63;6.50;;;1.80;86.80;;;;;;5043977;28;20710;-86
2021/01/27 06:29:45;;;;;;;9.97;7.40;;;1.80;86.50;;;;;;5045170;28;20252;-85
2021/01/27 06:32:49;;;;;;;10.13;7.27;;;1.70;87.00;;;;;;5044710;28;20702;-84
2021/01/27 06:35:34;;;;;;;8.27;7.00;;;1.50;87.80;;;;;;5044490;28;20185;-86
2021/01/27 06:38:37;;;;;;;12.03;7.27;;;1.60;88.00;;;;;;5024956;28;20212;-86
2021/01/27 06:41:19;;;;;;;9.17;6.77;;;1.40;88.40;;;;;;5031498;28;20244;-86
2021/01/27 06:44:02;;;;;;;9.20;8.20;;;1.30;89.20;;;;;;5044636;28;20548;-86
2021/01/27 06:46:57;;;;;;;11.33;8.30;;;1.30;89.30;;;;;;5044629;28;20192;-86
2021/01/27 06:49:37;;;;;;;10.17;7.83;;;1.30;88.40;;;;;;5044659;28;20248;-86
2021/01/27 06:52:09;;;;;;;9.93;8.63;;;1.40;88.70;;;;;;5041096;28;20790;-86
2021/01/27 06:54:42;;;;;;;8.60;7.70;;;1.50;88.50;;;;;;5044550;28;20173;-85
2021/01/27 06:57:28;;;;;;;9.40;7.50;;;1.50;88.00;;;;;;5043409;28;20228;-86
2021/01/27 07:00:14;;;;;;;8.77;6.23;;;1.60;88.20;;;;;;5043497;28;20180;-85
2021/01/27 07:02:40;;;;;;;7.70;6.90;;;1.60;87.20;;;;;;5025699;28;20169;-85
2021/01/27 07:05:35;;;;;;;7.83;6.40;;;1.50;88.80;;;;;;5024828;28;20667;-86
2021/01/27 07:08:22;;;;;;;7.63;6.20;;;1.50;88.50;;;;;;5023650;28;20200;-86
2021/01/27 07:11:07;;;;;;;6.77;6.07;;;1.60;88.20;;;;;;5037476;28;20177;-86
2021/01/27 07:13:50;;;;;;;6.47;5.73;;;1.60;88.90;;;;;;5045601;28;20169;-86
2021/01/27 07:16:45;;;;;;;8.33;6.83;;;1.60;88.90;;;;;;5044118;28;20176;-86
2021/01/27 07:19:35;;;;;;;7.17;6.33;;;1.60;89.20;;;;;;5045099;28;20177;-85
2021/01/27 07:22:06;;;;;;;7.57;6.47;;;1.70;89.10;;;;;;5041472;28;20181;-86
2021/01/27 07:24:44;;;;;;;7.37;6.07;;;1.50;89.80;;;;;;5044091;28;20193;-85
2021/01/27 07:27:21;;;;;;;7.47;6.40;;;1.40;90.70;;;;;;5047174;28;20224;-86
2021/01/27 07:29:59;;;;;;;8.57;6.57;;;1.30;91.50;;;;;;5049699;28;20281;-86
2021/01/27 07:32:39;;;;;;;7.17;6.47;;;1.30;91.80;;;;;;5024358;28;20192;-87
2021/01/27 07:35:14;;;;;;;7.60;6.40;;;1.20;92.00;;;;;;5024608;28;20190;-85
2021/01/27 07:38:08;;;;;;;7.23;6.33;;;1.30;92.30;;;;;;5024015;28;20269;-85
2021/01/27 07:40:39;;;;;;;8.43;6.07;;;1.50;90.70;;;;;;5023868;28;20193;-86
2021/01/27 07:43:19;;;;;;;8.97;5.50;;;1.70;89.70;;;;;;5021957;28;20271;-85
2021/01/27 07:45:51;;;;;;;7.30;5.30;;;1.70;88.50;;;;;;5033257;28;20200;-85
2021/01/27 07:48:35;;;;;;;6.70;5.27;;;1.70;87.60;;;;;;5034803;28;20228;-86
2021/01/27 07:51:18;;;;;;;7.13;5.70;;;1.60;88.50;;;;;;5024089;28;20249;-86
2021/01/27 07:53:56;;;;;;;7.10;5.57;;;1.70;88.10;;;;;;5027690;28;20174;-85
2021/01/27 07:56:30;;;;;;;6.03;5.30;;;1.50;88.90;;;;;;5037272;28;20276;-86
2021/01/27 07:59:32;;;;;;;5.83;5.00;;;1.40;89.70;;;;;;5037765;28;20670;-86
2021/01/27 08:02:24;;;;;;;6.77;5.37;;;1.40;89.70;;;;;;5028984;28;20765;-85
2021/01/27 08:04:55;;;;;;;5.20;4.53;;;1.20;90.30;;;;;;5047183;28;20268;-84
2021/01/27 08:08:04;;;;;;;5.77;4.40;;;1.20;91.20;;;;;;5027945;28;20277;-87
2021/01/27 08:10:35;;;;;;;5.43;4.07;;;1.10;91.60;;;;;;5031471;28;20231;-86
2021/01/27 08:13:07;;;;;;;7.80;4.20;;;1.20;90.50;;;;;;5042138;28;20188;-86
2021/01/27 08:15:40;;;;;;;5.13;4.33;;;1.30;90.50;;;;;;5035844;28;20189;-87
2021/01/27 08:18:18;;;;;;;6.70;4.37;;;1.40;91.30;;;;;;5034783;28;20284;-85
2021/01/27 08:20:46;;;;;;;5.50;4.23;;;1.30;92.50;;;;;;5038773;28;20193;-85
2021/01/27 08:23:21;;;;;;;4.43;3.90;;;1.30;93.20;;;;;;5041520;28;20214;-87
2021/01/27 08:26:06;;;;;;;4.53;3.90;;;1.10;94.80;;;;;;5027923;28;20181;-86
2021/01/27 08:28:35;;;;;;;4.30;3.70;;;1.00;96.40;;;;;;5027631;28;20166;-87
2021/01/27 08:31:07;;;;;;;6.17;4.17;;;0.80;98.60;;;;;;5025303;28;20178;-86
2021/01/27 08:33:40;;;;;;;5.20;4.20;;;0.80;99.90;;;;;;5026286;28;20202;-87
2021/01/27 08:36:09;;;;;;;6.03;4.50;;;0.80;99.90;;;;;;5009551;28;20197;-87
2021/01/27 08:38:37;;;;;;;5.20;4.30;;;0.70;99.90;;;;;;5028619;28;20267;-87
2021/01/27 08:41:03;;;;;;;6.27;4.37;;;0.70;99.90;;;;;;5046247;28;20251;-87
2021/01/27 08:43:36;;;;;;;7.03;4.77;;;0.60;99.90;;;;;;5040904;28;20560;-87
2021/01/27 08:46:43;;;;;;;6.37;4.37;;;0.70;99.90;;;;;;5040427;28;20188;-87
2021/01/27 08:49:10;;;;;;;6.90;4.60;;;0.80;99.90;;;;;;5030174;28;20250;-85
2021/01/27 08:51:43;;;;;;;6.50;4.50;;;0.70;99.90;;;;;;5028854;28;20192;-87
2021/01/27 08:54:50;;;;;;;6.43;4.37;;;0.60;99.90;;;;;;5036957;28;20694;-87
2021/01/27 08:57:36;;;;;;;5.20;4.40;;;0.50;99.90;;;;;;5040435;28;20252;-87
2021/01/27 09:00:27;;;;;;;8.53;5.60;;;0.50;99.90;;;;;;5037563;28;20574;-86
2021/01/27 09:03:00;;;;;;;8.63;5.40;;;0.50;99.90;;;;;;5039497;28;20262;-87
2021/01/27 09:05:37;;;;;;;7.80;6.20;;;0.50;99.90;;;;;;5035191;28;20252;-87
2021/01/27 09:08:11;;;;;;;6.73;5.60;;;0.50;99.90;;;;;;5038962;28;20180;-87
2021/01/27 09:10:37;;;;;;;6.37;5.77;;;0.60;99.90;;;;;;5039553;28;20181;-87
2021/01/27 09:13:23;;;;;;;6.50;5.80;;;0.60;99.90;;;;;;5034332;28;20243;-87
2021/01/27 09:16:00;;;;;;;6.90;5.43;;;0.50;99.90;;;;;;5044495;28;20216;-86
2021/01/27 09:18:25;;;;;;;7.00;6.00;;;0.60;99.90;;;;;;5039820;28;20191;-87
2021/01/27 09:20:52;;;;;;;6.77;6.13;;;0.70;99.90;;;;;;5037429;28;20181;-87
2021/01/27 09:23:20;;;;;;;7.57;6.33;;;0.80;99.90;;;;;;5030155;28;20233;-86
2021/01/27 09:25:50;;;;;;;6.77;6.07;;;0.70;99.90;;;;;;5037714;28;20184;-87
2021/01/27 09:28:25;;;;;;;6.40;5.60;;;0.80;99.90;;;;;;5040733;28;20209;-87
2021/01/27 09:30:52;;;;;;;6.63;6.00;;;0.80;99.90;;;;;;5032918;28;20216;-86
2021/01/27 09:33:32;;;;;;;8.07;5.87;;;0.90;99.90;;;;;;5037006;28;20189;-86
2021/01/27 09:36:26;;;;;;;6.40;5.80;;;0.90;99.90;;;;;;5031893;28;20248;-86
2021/01/27 09:38:57;;;;;;;7.80;5.67;;;0.90;99.90;;;;;;5034983;28;20205;-86
2021/01/27 09:41:30;;;;;;;6.77;5.83;;;0.80;99.90;;;;;;5031480;28;20237;-86
2021/01/27 09:43:58;;;;;;;9.07;6.70;;;0.80;99.90;;;;;;5033490;28;20200;-86
2021/01/27 09:46:28;;;;;;;5.93;5.33;;;0.80;99.90;;;;;;5032391;28;20213;-86
2021/01/27 09:49:07;;;;;;;7.77;6.00;;;1.00;99.90;;;;;;5038091;28;20237;-87
2021/01/27 09:51:33;;;;;;;7.23;6.50;;;1.00;99.90;;;;;;5020487;28;20181;-87
2021/01/27 09:54:03;;;;;;;7.67;6.20;;;1.10;99.90;;;;;;5034139;28;20245;-87
2021/01/27 09:56:30;;;;;;;7.63;6.13;;;1.30;99.90;;;;;;5034497;28;20217;-87
2021/01/27 09:59:00;;;;;;;6.50;5.90;;;1.30;99.90;;;;;;5018026;28;20215;-87
2021/01/27 10:01:29;;;;;;;6.40;5.80;;;1.30;99.90;;;;;;5038191;28;20194;-87
2021/01/27 10:04:06;;;;;;;6.43;5.83;;;1.20;99.90;;;;;;5030857;28;20197;-87
2021/01/27 10:06:43;;;;;;;6.03;5.47;;;1.20;99.90;;;;;;5033490;28;20220;-87
2021/01/27 10:09:29;;;;;;;6.10;5.60;;;1.20;99.90;;;;;;5035096;28;20186;-87
2021/01/27 10:12:04;;;;;;;6.03;5.43;;;1.20;99.90;;;;;;5034725;28;20670;-87
2021/01/27 10:14:32;;;;;;;5.57;5.00;;;1.40;99.90;;;;;;5033199;28;20283;-86
2021/01/27 10:17:07;;;;;;;5.57;5.07;;;1.70;99.90;;;;;;5032449;28;20211;-88
2021/01/27 10:19:38;;;;;;;6.80;5.00;;;1.70;99.40;;;;;;5034110;28;20188;-87
2021/01/27 10:22:06;;;;;;;5.00;4.60;;;1.40;99.90;;;;;;5038916;28;20181;-87
2021/01/27 10:24:46;;;;;;;5.80;5.20;;;1.30;99.90;;;;;;5033339;28;20208;-87
2021/01/27 10:27:16;;;;;;;6.80;4.93;;;1.20;99.90;;;;;;5032607;28;20228;-88
2021/01/27 10:29:42;;;;;;;5.27;4.40;;;1.30;99.90;;;;;;5032678;28;20265;-88
2021/01/27 10:32:17;;;;;;;4.47;3.90;;;1.40;99.90;;;;;;5035271;28;20190;-87
2021/01/27 10:34:45;;;;;;;3.93;3.53;;;1.60;99.90;;;;;;5031868;28;20610;-88
2021/01/27 10:37:29;;;;;;;3.73;3.40;;;1.60;99.90;;;;;;5031050;28;20219;-88
2021/01/27 10:40:13;;;;;;;4.13;3.73;;;1.70;99.90;;;;;;5033946;28;20208;-88
2021/01/27 10:42:42;;;;;;;4.10;3.70;;;1.90;99.60;;;;;;5033013;28;20240;-89
2021/01/27 10:45:32;;;;;;;5.23;4.03;;;1.70;99.10;;;;;;5035673;28;20201;-89
2021/01/27 10:48:09;;;;;;;4.23;3.67;;;1.60;99.90;;;;;;5032632;28;20200;-89
2021/01/27 10:50:38;;;;;;;5.17;4.33;;;1.50;99.90;;;;;;5034110;28;20192;-90
2021/01/27 10:53:05;;;;;;;5.27;3.87;;;1.50;99.90;;;;;;5044624;28;20181;-89
2021/01/27 10:55:36;;;;;;;4.80;4.07;;;1.40;99.90;;;;;;5036689;28;20247;-89
2021/01/27 10:58:09;;;;;;;6.73;4.27;;;1.50;99.90;;;;;;5035008;28;20236;-89
2021/01/27 11:00:36;;;;;;;4.97;3.93;;;1.50;99.90;;;;;;5034672;28;20643;-89
2021/01/27 11:03:03;;;;;;;5.10;4.60;;;1.50;99.90;;;;;;5036196;28;20209;-89
2021/01/27 11:05:30;;;;;;;6.60;4.33;;;1.50;99.90;;;;;;5037831;28;20192;-89
2021/01/27 11:07:56;;;;;;;6.63;3.67;;;1.70;99.90;;;;;;5030414;28;20205;-89
2021/01/27 11:10:23;;;;;;;3.80;3.43;;;1.70;99.90;;;;;;5031210;28;20231;-88
2021/01/27 11:12:48;;;;;;;3.90;3.57;;;1.80;99.90;;;;;;5026378;28;20232;-89
2021/01/27 11:15:14;;;;;;;3.33;2.93;;;1.90;99.60;;;;;;5025658;28;20189;-88
2021/01/27 11:17:40;;;;;;;3.97;3.03;;;1.80;99.90;;;;;;5032325;28;20268;-89
2021/01/27 11:20:07;;;;;;;3.43;2.70;;;1.80;99.70;;;;;;5031505;28;20192;-88
2021/01/27 11:22:32;;;;;;;3.07;2.53;;;1.90;99.90;;;;;;5030982;28;20637;-89
2021/01/27 11:24:58;;;;;;;2.57;2.37;;;1.90;98.60;;;;;;5030604;28;20219;-88
2021/01/27 11:27:24;;;;;;;2.40;2.20;;;1.90;98.40;;;;;;5029224;28;20672;-89
2021/01/27 11:29:50;;;;;;;2.17;2.00;;;1.80;99.60;;;;;;5038534;28;20729;-89
2021/01/27 11:32:16;;;;;;;3.23;2.17;;;1.80;99.90;;;;;;5034323;28;20207;-89
2021/01/27 11:34:42;;;;;;;2.03;1.80;;;1.80;99.90;;;;;;5035102;28;20208;-90
2021/01/27 11:37:09;;;;;;;1.83;1.63;;;1.70;99.70;;;;;;5013913;28;20213;-90
2021/01/27 11:39:35;;;;;;;2.50;1.93;;;1.90;98.80;;;;;;5035476;28;20193;-89
2021/01/27 11:42:02;;;;;;;2.20;2.00;;;1.80;99.00;;;;;;5030809;28;20193;-90
2021/01/27 11:44:28;;;;;;;2.20;2.00;;;1.90;99.90;;;;;;5034358;28;20288;-89
2021/01/27 11:46:53;;;;;;;2.13;1.90;;;1.90;99.00;;;;;;5035903;28;20221;-89
2021/01/27 11:49:19;;;;;;;2.00;1.80;;;1.90;98.30;;;;;;5036879;28;20189;-89
2021/01/27 11:51:45;;;;;;;2.00;1.90;;;1.70;99.90;;;;;;5037272;28;20203;-88
2021/01/27 11:54:11;;;;;;;2.33;1.60;;;1.70;99.60;;;;;;5041095;28;20228;-88
2021/01/27 11:56:37;;;;;;;2.43;1.90;;;1.70;99.40;;;;;;5035475;28;20590;-89
2021/01/27 11:59:03;;;;;;;2.33;1.93;;;1.90;98.50;;;;;;5032722;28;20285;-90
2021/01/27 12:01:30;;;;;;;2.17;1.97;;;1.70;99.30;;;;;;5036605;28;20196;-88
2021/01/27 12:03:56;;;;;;;2.27;2.07;;;1.70;99.40;;;;;;5043206;28;20908;-89
2021/01/27 12:06:21;;;;;;;2.40;2.10;;;1.60;99.90;;;;;;5045232;28;20220;-88
2021/01/27 12:08:47;;;;;;;2.60;2.30;;;1.70;99.90;;;;;;5043630;28;20226;-88
2021/01/27 12:11:13;;;;;;;2.33;2.13;;;1.80;99.60;;;;;;5030071;28;20212;-88
2021/01/27 12:13:39;;;;;;;2.20;2.03;;;1.70;99.90;;;;;;5022803;28;20186;-88
2021/01/27 12:16:05;;;;;;;2.30;2.10;;;1.70;99.70;;;;;;5022972;28;20192;-88
2021/01/27 12:18:30;;;;;;;3.93;3.30;;;1.70;99.90;;;;;;5023618;28;20241;-87
2021/01/27 12:20:56;;;;;;;2.60;2.33;;;1.80;99.80;;;;;;5023109;28;20626;-87
2021/01/27 12:23:21;;;;;;;3.13;2.50;;;1.70;99.90;;;;;;5022374;28;20201;-88
2021/01/27 12:25:47;;;;;;;2.33;2.13;;;1.70;99.90;;;;;;5022348;28;20536;-87
2021/01/27 12:28:14;;;;;;;2.70;2.47;;;1.70;99.90;;;;;;5036472;28;20209;-87
2021/01/27 12:30:40;;;;;;;3.73;2.67;;;1.80;99.90;;;;;;5028519;28;20664;-87
2021/01/27 12:33:06;;;;;;;3.30;2.40;;;1.70;99.90;;;;;;5036463;28;20255;-87
2021/01/27 12:35:32;;;;;;;3.03;2.73;;;1.70;99.90;;;;;;5022821;28;20190;-88
2021/01/27 12:37:58;;;;;;;5.50;2.40;;;1.70;99.90;;;;;;5028931;28;20198;-88
2021/01/27 12:40:24;;;;;;;5.13;2.60;;;1.80;99.90;;;;;;5030389;28;20219;-87
2021/01/27 12:42:51;;;;;;;3.03;2.77;;;1.90;99.90;;;;;;5037690;28;20683;-88
2021/01/27 12:45:19;;;;;;;2.97;2.67;;;1.90;99.90;;;;;;5034921;28;20552;-88
2021/01/27 12:47:45;;;;;;;2.90;2.60;;;1.70;99.90;;;;;;5022005;28;20201;-88
2021/01/27 12:50:12;;;;;;;2.70;2.50;;;1.70;99.90;;;;;;5024422;28;20186;-87
2021/01/27 12:52:39;;;;;;;2.37;2.17;;;1.90;99.90;;;;;;5031537;28;20185;-88
2021/01/27 12:55:09;;;;;;;3.97;2.30;;;2.00;99.30;;;;;;5041582;28;20185;-86
2021/01/27 12:57:37;;;;;;;3.07;2.37;;;2.10;99.30;;;;;;5035226;28;20217;-87
2021/01/27 13:00:07;;;;;;;3.07;2.37;;;2.10;99.80;;;;;;5029858;28;20220;-88
2021/01/27 13:02:33;;;;;;;2.70;2.30;;;1.90;99.90;;;;;;5039662;28;20192;-87
2021/01/27 13:04:59;;;;;;;4.00;2.73;;;2.00;99.90;;;;;;5032198;28;20324;-87
2021/01/27 13:07:25;;;;;;;3.07;2.20;;;2.00;99.50;;;;;;5036238;28;20209;-88
2021/01/27 13:09:51;;;;;;;3.13;2.23;;;2.10;99.50;;;;;;5027002;28;20182;-87
2021/01/27 13:12:17;;;;;;;2.40;2.17;;;2.10;98.40;;;;;;5024306;28;20173;-87
2021/01/27 13:14:42;;;;;;;2.50;2.30;;;2.00;99.40;;;;;;5027320;28;20188;-87
2021/01/27 13:17:08;;;;;;;2.40;2.20;;;1.90;99.90;;;;;;5041000;28;20603;-87
2021/01/27 13:19:34;;;;;;;2.80;2.20;;;1.90;99.90;;;;;;5035779;28;20192;-87
2021/01/27 13:21:59;;;;;;;3.60;2.10;;;1.80;99.90;;;;;;5043668;28;20212;-88
2021/01/27 13:24:25;;;;;;;3.17;2.23;;;1.90;99.90;;;;;;5034992;28;20209;-87
2021/01/27 13:26:51;;;;;;;2.33;2.10;;;1.90;99.90;;;;;;5040127;28;20224;-87
2021/01/27 13:29:16;;;;;;;2.20;2.00;;;1.90;99.90;;;;;;5040756;28;20181;-87